Terminal Aerodrome Forecast
Issued by NWS

Home | Current Version | Previous Version | Text Only | Print | Product List | Glossary On
Versions: 1 2 3 4 5 6 7 8 9 10 11 12 13 14 15 16 17 18
885
FTUS44 KBMX 250520
TAFANB
TAF
KANB 250520Z 2506/2606 25005KT P6SM SCT035 OVC060
     FM251000 26005KT P6SM BKN025
     FM251100 26005KT P6SM OVC015
      TEMPO 2511/2514 5SM BR OVC008
     FM251600 30008KT P6SM BKN025
     FM251900 31008KT P6SM BKN040=

USA.gov is the U.S. government's official web portal to all federal, state and local government web resources and services.